Kotor — J8B5064 — position and weather

sailwx.info

Track history (hours):
 
Tides and Currents Weather Stations Pressure Air Temp Water Temp Dewpoint Dewpoint Depression Visibility Wind Speed Wind Dir Waves Ship Positions

Kotor

Last reported at 2018-Feb-19 11:30 UTC. Time now 2018-Feb-19 11:33 UTC.
Position N 49°46' W 003°06'.

Length 180 m; draft 6.4 m.

Type: Cargo ship. MMSI: 375074000.

Date/timePositionNaut miles runAvg speedWind from/ knotsBaromVisibWave heightAir tempDewpointWater temp
2018-Feb-19 11:30N 49°46' W 003°06'713.5
2018-Feb-19 11:00N 49°42' W 003°15'713.5
2018-Feb-19 10:30N 49°39' W 003°24'4114.0
2018-Feb-19 07:33N 49°17' W 004°19'114.5
2018-Feb-19 07:30N 49°17' W 004°20'814.8
2018-Feb-19 06:58N 49°13' W 004°30'814.7
2018-Feb-19 06:26N 49°09' W 004°41'614.7
2018-Feb-19 06:00N 49°06' W 004°49'714.6
2018-Feb-19 05:31N 49°02' W 004°58'814.5
2018-Feb-19 04:57N 48°58' W 005°09'614.4
2018-Feb-19 04:31N 48°55' W 005°17'714.3
2018-Feb-19 04:00N 48°51' W 005°26'714.0
2018-Feb-19 03:30N 48°47' W 005°35'713.7
2018-Feb-19 02:59N 48°42' W 005°42'713.2
2018-Feb-19 02:29N 48°36' W 005°46'613.0
2018-Feb-19 02:00N 48°30' W 005°50'1312.4
2018-Feb-19 00:58N 48°18' W 005°59'612.0
2018-Feb-19 00:29N 48°13' W 006°02'611.7
2018-Feb-19 00:00N 48°08' W 006°06'611.4
2018-Feb-18 23:30N 48°03' W 006°10'811.2
2018-Feb-18 22:47N 47°56' W 006°15'53111.6
2018-Feb-17 01:10N 39°28' W 009°50'312.2
2018-Feb-17 00:55N 39°25' W 009°50'512.5
2018-Feb-17 00:30N 39°20' W 009°50'612.5
2018-Feb-17 00:00N 39°14' W 009°50'612.2
2018-Feb-16 23:30N 39°08' W 009°50'612.2
2018-Feb-16 23:00N 39°02' W 009°50'612.3
2018-Feb-16 22:30N 38°56' W 009°50'612.1
2018-Feb-16 22:00N 38°50' W 009°51'612.2
2018-Feb-16 21:30N 38°43' W 009°51'612.0
2018-Feb-16 21:00N 38°38' W 009°50'611.9
2018-Feb-16 20:30N 38°32' W 009°48'611.7
2018-Feb-16 20:00N 38°26' W 009°46'611.4
2018-Feb-16 19:29N 38°20' W 009°45'611.7
2018-Feb-16 19:00N 38°15' W 009°43'611.7
2018-Feb-16 18:30N 38°09' W 009°41'611.5
2018-Feb-16 18:00N 38°04' W 009°39'611.8
2018-Feb-16 17:30N 37°58' W 009°38'611.5
2018-Feb-16 17:00N 37°52' W 009°36'611.9
2018-Feb-16 16:30N 37°46' W 009°35'611.9
2018-Feb-16 16:00N 37°40' W 009°34'6211.4
2018-Feb-16 10:35N 36°44' W 009°03'1111.9
2018-Feb-16 09:42N 36°41' W 008°50'311.8
2018-Feb-16 09:27N 36°40' W 008°47'511.9
2018-Feb-16 09:00N 36°38' W 008°41'2512.4
2018-Feb-16 06:59N 36°29' W 008°11'13012.8
2018-Feb-15 20:47N 35°58' W 005°35'311.4
2018-Feb-15 20:30N 35°59' W 005°31'611.0
2018-Feb-15 20:00N 36°01' W 005°25'612.1
2018-Feb-15 19:30N 36°02' W 005°17'712.5
2018-Feb-15 18:58N 36°04' W 005°09'21113.0
2018-Feb-15 02:41N 36°32' W 000°50'312.9
2018-Feb-15 02:29N 36°33' W 000°47'  
Track history (hours):
 
Tides and Currents Weather Stations Pressure Air Temp Water Temp Dewpoint Dewpoint Depression Visibility Wind Speed Wind Dir Waves Ship Positions

Kotor

Last reported at 2018-Feb-19 11:30 UTC. Time now 2018-Feb-19 11:33 UTC.
Position N 49°46' W 003°06'.

Length 180 m; draft 6.4 m.

Type: Cargo ship. MMSI: 375074000.

Date/timePositionNaut miles runAvg speedWind from/ knotsBaromVisibWave heightAir tempDewpointWater temp
2018-Feb-19 11:30N 49°46' W 003°06'713.5
2018-Feb-19 11:00N 49°42' W 003°15'713.5
2018-Feb-19 10:30N 49°39' W 003°24'4114.0
2018-Feb-19 07:33N 49°17' W 004°19'114.5
2018-Feb-19 07:30N 49°17' W 004°20'814.8
2018-Feb-19 06:58N 49°13' W 004°30'814.7
2018-Feb-19 06:26N 49°09' W 004°41'614.7
2018-Feb-19 06:00N 49°06' W 004°49'714.6
2018-Feb-19 05:31N 49°02' W 004°58'814.5
2018-Feb-19 04:57N 48°58' W 005°09'614.4
2018-Feb-19 04:31N 48°55' W 005°17'714.3
2018-Feb-19 04:00N 48°51' W 005°26'714.0
2018-Feb-19 03:30N 48°47' W 005°35'713.7
2018-Feb-19 02:59N 48°42' W 005°42'713.2
2018-Feb-19 02:29N 48°36' W 005°46'613.0
2018-Feb-19 02:00N 48°30' W 005°50'1312.4
2018-Feb-19 00:58N 48°18' W 005°59'612.0
2018-Feb-19 00:29N 48°13' W 006°02'611.7
2018-Feb-19 00:00N 48°08' W 006°06'611.4
2018-Feb-18 23:30N 48°03' W 006°10'811.2
2018-Feb-18 22:47N 47°56' W 006°15'53111.6
2018-Feb-17 01:10N 39°28' W 009°50'312.2
2018-Feb-17 00:55N 39°25' W 009°50'512.5
2018-Feb-17 00:30N 39°20' W 009°50'612.5
2018-Feb-17 00:00N 39°14' W 009°50'612.2
2018-Feb-16 23:30N 39°08' W 009°50'612.2
2018-Feb-16 23:00N 39°02' W 009°50'612.3
2018-Feb-16 22:30N 38°56' W 009°50'612.1
2018-Feb-16 22:00N 38°50' W 009°51'612.2
2018-Feb-16 21:30N 38°43' W 009°51'612.0
2018-Feb-16 21:00N 38°38' W 009°50'611.9
2018-Feb-16 20:30N 38°32' W 009°48'611.7
2018-Feb-16 20:00N 38°26' W 009°46'611.4
2018-Feb-16 19:29N 38°20' W 009°45'611.7
2018-Feb-16 19:00N 38°15' W 009°43'611.7
2018-Feb-16 18:30N 38°09' W 009°41'611.5
2018-Feb-16 18:00N 38°04' W 009°39'611.8
2018-Feb-16 17:30N 37°58' W 009°38'611.5
2018-Feb-16 17:00N 37°52' W 009°36'611.9
2018-Feb-16 16:30N 37°46' W 009°35'611.9
2018-Feb-16 16:00N 37°40' W 009°34'6211.4
2018-Feb-16 10:35N 36°44' W 009°03'1111.9
2018-Feb-16 09:42N 36°41' W 008°50'311.8
2018-Feb-16 09:27N 36°40' W 008°47'511.9
2018-Feb-16 09:00N 36°38' W 008°41'2512.4
2018-Feb-16 06:59N 36°29' W 008°11'13012.8
2018-Feb-15 20:47N 35°58' W 005°35'311.4
2018-Feb-15 20:30N 35°59' W 005°31'611.0
2018-Feb-15 20:00N 36°01' W 005°25'612.1
2018-Feb-15 19:30N 36°02' W 005°17'712.5
2018-Feb-15 18:58N 36°04' W 005°09'21113.0
2018-Feb-15 02:41N 36°32' W 000°50'312.9
2018-Feb-15 02:29N 36°33' W 000°47'  

Dump ship's entire track history